createdAt,value
2023-01-02T00:08:01.698Z,48.96
2023-01-02T00:13:13.668Z,49.60
2023-01-02T00:24:07.204Z,49.72
2023-01-02T00:29:46.101Z,48.48
2023-01-02T00:32:12.856Z,50.32
2023-01-02T00:34:43.496Z,50.73
2023-01-02T00:43:18.950Z,50.18
2023-01-02T00:51:23.030Z,49.90
2023-01-02T01:21:32.067Z,49.85
2023-01-02T01:23:58.384Z,49.93
2023-01-02T01:26:24.540Z,49.71
2023-01-02T01:28:50.884Z,50.93
2023-01-02T01:31:21.848Z,50.13
2023-01-02T01:33:52.062Z,51.49
2023-01-02T01:36:21.992Z,50.85
2023-01-02T01:38:50.478Z,50.30
2023-01-02T01:41:16.849Z,49.48
2023-01-02T01:43:44.821Z,48.82
2023-01-02T01:46:16.383Z,49.37
2023-01-02T01:48:46.200Z,49.45
2023-01-02T01:51:14.469Z,48.90
2023-01-02T01:53:45.743Z,50.27
2023-01-02T01:56:16.479Z,49.22
2023-01-02T01:58:49.602Z,50.15
2023-01-02T02:12:39.562Z,51.81
2023-01-02T02:15:11.238Z,51.78
2023-01-02T02:17:50.793Z,51.66
2023-01-02T02:23:35.254Z,51.28
2023-01-02T02:28:54.803Z,49.50
2023-01-02T02:36:54.076Z,51.42
2023-01-02T02:47:52.006Z,51.28
2023-01-02T02:51:20.571Z,51.80
2023-01-02T02:56:39.824Z,50.73
2023-01-02T03:01:30.867Z,49.93
2023-01-02T03:03:57.459Z,48.53
2023-01-02T03:06:38.820Z,46.75
2023-01-02T03:20:22.498Z,48.71
2023-01-02T03:22:55.795Z,49.36
2023-01-02T03:25:45.961Z,49.10
2023-01-02T03:28:10.273Z,50.19
2023-01-02T03:33:16.532Z,49.84
2023-01-02T03:35:43.998Z,50.53
2023-01-02T03:38:13.591Z,50.52
2023-01-02T05:58:55.878Z,50.54
2023-01-02T06:09:46.110Z,51.10
2023-01-02T06:12:16.619Z,51.29
2023-01-02T06:36:48.972Z,48.00
2023-01-02T06:39:19.468Z,47.18
2023-01-02T06:41:45.786Z,45.23
2023-01-02T06:44:11.948Z,44.41
2023-01-02T06:46:38.315Z,44.44
2023-01-02T06:49:04.455Z,47.34
2023-01-02T07:00:03.109Z,49.92
2023-01-02T07:05:13.093Z,48.06
2023-01-02T07:07:45.700Z,47.83
2023-01-02T07:10:11.866Z,53.24
2023-01-02T07:12:38.030Z,55.83
2023-01-02T07:15:04.157Z,50.99
2023-01-02T07:17:30.339Z,60.97
2023-01-02T07:20:01.685Z,53.96
2023-01-02T07:22:28.235Z,50.17
2023-01-02T07:24:54.463Z,53.16
2023-01-02T07:27:20.575Z,60.15
2023-01-02T07:29:46.672Z,55.81
2023-01-02T07:32:12.813Z,50.02
2023-01-02T07:34:38.946Z,46.50
2023-01-02T07:37:05.099Z,51.44
2023-01-02T07:39:31.226Z,46.65
2023-01-02T07:41:57.344Z,55.17
2023-01-02T07:44:23.464Z,49.54
2023-01-02T07:46:49.554Z,53.30
2023-01-02T07:49:15.672Z,52.76
2023-01-02T07:54:31.131Z,44.53
2023-01-02T08:05:40.007Z,46.83
2023-01-02T09:15:22.572Z,40.49
2023-01-02T09:19:45.992Z,41.38
2023-01-02T09:32:56.825Z,41.50
2023-01-02T09:59:58.084Z,39.15
2023-01-02T10:05:13.745Z,39.31
2023-01-02T12:38:42.251Z,31.71
2023-01-02T12:41:08.967Z,33.94
2023-01-02T13:33:48.627Z,31.36
2023-01-02T13:36:17.538Z,31.19
2023-01-02T13:38:43.887Z,31.90
2023-01-02T13:41:10.026Z,31.48
2023-01-02T13:43:36.200Z,32.67
2023-01-02T13:48:46.120Z,31.79
2023-01-02T13:51:12.345Z,31.55
2023-01-02T13:53:51.519Z,32.40
2023-01-02T13:56:17.746Z,32.42
2023-01-02T13:58:43.971Z,33.52
2023-01-02T14:01:10.308Z,33.06
2023-01-02T14:03:36.588Z,33.09
2023-01-02T14:06:02.919Z,32.91
2023-01-02T14:08:29.234Z,34.64
2023-01-02T14:10:55.525Z,36.85
2023-01-02T14:13:21.745Z,38.51
2023-01-02T14:15:48.028Z,35.02
2023-01-02T14:18:14.252Z,34.33
2023-01-02T14:20:40.532Z,33.78
2023-01-02T14:23:06.747Z,34.47
2023-01-02T14:25:33.014Z,33.54
2023-01-02T14:27:59.277Z,33.82
2023-01-02T14:30:25.490Z,38.04
2023-01-02T14:32:51.694Z,38.84
2023-01-02T14:35:20.336Z,37.95
2023-01-02T14:37:48.394Z,36.44
2023-01-02T14:40:14.663Z,34.71
2023-01-02T14:42:43.686Z,34.41
2023-01-02T14:45:10.024Z,34.01
2023-01-02T14:47:36.755Z,34.91
2023-01-02T14:50:02.995Z,37.46
2023-01-02T14:52:30.504Z,36.90
2023-01-02T14:54:58.874Z,37.62
2023-01-02T14:57:25.097Z,35.61
2023-01-02T14:59:51.389Z,35.99
2023-01-02T15:02:17.788Z,36.12
2023-01-02T15:04:44.134Z,35.68
2023-01-02T15:07:10.420Z,36.90
2023-01-02T15:09:36.659Z,36.49
2023-01-02T15:12:02.886Z,36.25
2023-01-02T15:14:29.222Z,37.61
2023-01-02T15:16:55.446Z,37.42
2023-01-02T15:19:24.258Z,37.97
2023-01-02T15:21:50.765Z,38.35
2023-01-02T15:24:24.480Z,38.32
2023-01-02T15:26:50.637Z,38.97
2023-01-02T15:29:16.891Z,38.94
2023-01-02T15:31:43.098Z,38.94
2023-01-02T15:34:09.359Z,39.79
2023-01-02T15:36:35.585Z,40.04
2023-01-02T15:39:01.838Z,41.56
2023-01-02T15:44:08.343Z,41.47
2023-01-02T15:52:37.084Z,40.15
2023-01-02T15:55:35.048Z,41.43
2023-01-02T15:59:05.680Z,39.03
2023-01-02T16:00:55.274Z,39.15
2023-01-02T16:03:21.587Z,40.11
2023-01-02T16:05:47.887Z,40.07
2023-01-02T16:08:17.060Z,40.78
2023-01-02T16:10:49.080Z,38.82
2023-01-02T16:13:17.301Z,38.29
2023-01-02T16:15:46.495Z,37.65
2023-01-02T16:18:12.725Z,39.34
2023-01-02T16:20:38.955Z,39.77
2023-01-02T16:23:05.197Z,39.31
2023-01-02T16:25:31.359Z,38.98
2023-01-02T16:27:57.521Z,38.33
2023-01-02T16:30:23.714Z,39.80
2023-01-02T16:32:49.854Z,38.64
2023-01-02T16:35:16.034Z,39.81
2023-01-02T16:37:42.185Z,42.44
2023-01-02T16:40:08.429Z,41.63
2023-01-02T16:42:34.689Z,40.46
2023-01-02T16:45:00.895Z,39.50
2023-01-02T16:47:27.124Z,38.50
2023-01-02T16:49:53.327Z,39.04
2023-01-02T16:52:19.508Z,39.45
2023-01-02T16:54:49.305Z,38.29
2023-01-02T16:57:20.074Z,38.25
2023-01-02T16:59:46.250Z,37.68
2023-01-02T17:02:12.538Z,37.47
2023-01-02T17:04:38.791Z,38.08
2023-01-02T17:07:05.045Z,40.18
2023-01-02T17:09:31.256Z,42.00
2023-01-02T17:11:57.460Z,42.50
2023-01-02T17:14:23.651Z,41.59
2023-01-02T17:16:49.835Z,40.59
2023-01-02T17:19:16.053Z,41.06
2023-01-02T17:21:42.283Z,40.77
2023-01-02T17:24:08.711Z,42.88
2023-01-02T17:26:34.942Z,43.49
2023-01-02T17:29:01.176Z,44.76
2023-01-02T17:31:27.390Z,44.80
2023-01-02T17:33:53.729Z,44.98
2023-01-02T17:36:19.954Z,43.72
2023-01-02T17:38:46.129Z,42.49
2023-01-02T17:41:12.332Z,41.88
2023-01-02T17:43:38.507Z,41.47
2023-01-02T17:47:00.974Z,41.61
2023-01-02T17:49:10.825Z,41.00
2023-01-02T17:51:37.053Z,42.06
2023-01-02T17:54:03.222Z,42.24
2023-01-02T17:56:29.419Z,42.11
2023-01-02T17:58:55.645Z,41.50
2023-01-02T18:01:22.003Z,41.35
2023-01-02T18:03:48.344Z,41.78
2023-01-02T18:06:14.476Z,41.33
2023-01-02T18:08:40.665Z,41.95
2023-01-02T18:11:06.810Z,41.67
2023-01-02T18:13:33.004Z,41.16
2023-01-02T18:15:59.165Z,41.57
2023-01-02T18:18:25.407Z,41.64
2023-01-02T18:20:51.608Z,44.01
2023-01-02T18:23:17.810Z,43.40
2023-01-02T18:25:43.998Z,43.23
2023-01-02T18:28:10.266Z,41.77
2023-01-02T18:30:36.413Z,42.71
2023-01-02T18:33:02.652Z,42.73
2023-01-02T18:38:15.006Z,44.22
2023-01-02T18:40:41.243Z,44.07
2023-01-02T18:43:07.433Z,44.42
2023-01-02T18:45:33.849Z,45.03
2023-01-02T18:48:00.151Z,45.66
2023-01-02T18:50:26.458Z,41.41
2023-01-02T18:52:52.915Z,42.64
2023-01-02T18:55:20.702Z,43.26
2023-01-02T19:00:38.168Z,43.77
2023-01-02T19:03:04.512Z,43.38
2023-01-02T19:05:30.822Z,44.30
2023-01-02T19:07:57.064Z,43.82
2023-01-02T19:10:23.283Z,44.57
2023-01-02T19:12:49.519Z,44.29
2023-01-02T19:15:15.704Z,45.00
2023-01-02T19:17:41.920Z,46.67
2023-01-02T19:20:08.267Z,46.95
2023-01-02T19:22:34.551Z,46.45
2023-01-02T19:25:05.709Z,45.33
2023-01-02T19:27:32.333Z,44.39
2023-01-02T19:29:58.617Z,43.93
2023-01-02T19:32:24.820Z,43.86
2023-01-02T19:34:51.078Z,44.32
2023-01-02T19:37:17.276Z,45.75
2023-01-02T19:39:43.546Z,45.10
2023-01-02T19:50:11.678Z,45.25
2023-01-02T19:52:38.074Z,44.10
2023-01-02T19:55:04.522Z,44.03
2023-01-02T19:57:38.451Z,44.86
2023-01-02T20:00:05.237Z,44.62
2023-01-02T20:05:21.082Z,44.55
2023-01-02T20:07:48.337Z,43.51
2023-01-02T20:10:14.518Z,43.63
2023-01-02T20:12:40.710Z,45.14
2023-01-02T20:15:06.940Z,44.43
2023-01-02T20:17:33.166Z,45.44
2023-01-02T20:19:59.353Z,43.61
2023-01-02T20:22:25.620Z,44.49
2023-01-02T20:24:51.841Z,44.55
2023-01-02T20:27:18.034Z,45.11
2023-01-02T20:29:44.258Z,44.31
2023-01-02T20:32:10.537Z,44.39
2023-01-02T20:34:36.748Z,44.35
2023-01-02T20:37:03.042Z,43.58
2023-01-02T20:39:29.260Z,43.86
2023-01-02T20:41:55.452Z,43.48
2023-01-02T20:44:21.658Z,42.61
2023-01-02T20:46:47.984Z,43.23
2023-01-02T20:49:14.237Z,43.72
2023-01-02T20:51:40.447Z,44.67
2023-01-02T20:54:06.648Z,43.71
2023-01-02T20:56:32.911Z,42.26
2023-01-02T20:58:59.101Z,41.15
2023-01-02T21:01:25.472Z,40.55
2023-01-02T21:03:51.819Z,40.56
2023-01-02T21:06:18.092Z,39.63
2023-01-02T21:08:44.302Z,39.67
2023-01-02T21:11:10.540Z,38.96
2023-01-02T21:13:36.823Z,39.88
2023-01-02T21:16:03.056Z,41.34
2023-01-02T21:18:29.352Z,40.95
2023-01-02T21:20:55.554Z,41.06
